MMNL/NLD METAR and TAF weather

Enter ICAO airport designator
Station Type Date Time Source
MMNL METAR 2020/09/19 00:40 UTC NOAA

MMNL 190040Z 00000KT 10SM BKN080 28/21 A2998 RMK 8/070


Station Type Date Time Source
MMNL Decoded METAR 2020/09/19 00:40 UTC NOAA

Nuevo Laredo International , Mexico (MMNL) 27-26N 099-34W
Sep 18, 2020 - 08:40 PM EDT / 2020.09.19 0040 UTC
Wind: Calm:0
Visibility: 10 mile(s):0
Sky conditions: mostly cloudy
Temperature: 82 F (28 C)
Dew Point: 69 F (21 C)
Relative Humidity: 65%
Pressure (altimeter): 29.98 in. Hg (1015 hPa)
ob: MMNL 190040Z 00000KT 10SM BKN080 28/21 A2998 RMK 8/070
cycle: 0

Station Type Date Time Source
MMNL TAF 2020/09/19 06:38 UTC NOAA

TAF MMNL 190531Z 1906/2006 03005KT P6SM SCT020 BKN080
FM191900 03010KT P6SM BKN030
BECMG 1921/1922 SCT030
FM200300 03005KT 6SM HZ SCT020

Example: see airport list